sensor_id;sensor_type;location;lat;lon;timestamp;temperature;humidity
71206;SHT31;58935;54.498;18.544;2024-03-22T00:00:21;5.29;85.20
71206;SHT31;58935;54.498;18.544;2024-03-22T00:02:48;5.29;85.17
71206;SHT31;58935;54.498;18.544;2024-03-22T00:05:13;5.30;85.16
71206;SHT31;58935;54.498;18.544;2024-03-22T00:07:39;5.30;85.08
71206;SHT31;58935;54.498;18.544;2024-03-22T00:10:05;5.30;85.07
71206;SHT31;58935;54.498;18.544;2024-03-22T00:12:31;5.29;85.10
71206;SHT31;58935;54.498;18.544;2024-03-22T00:14:59;5.30;85.01
71206;SHT31;58935;54.498;18.544;2024-03-22T00:17:24;5.29;85.00
71206;SHT31;58935;54.498;18.544;2024-03-22T00:19:50;5.27;85.00
71206;SHT31;58935;54.498;18.544;2024-03-22T00:22:15;5.29;85.06
71206;SHT31;58935;54.498;18.544;2024-03-22T00:24:40;5.30;85.10
71206;SHT31;58935;54.498;18.544;2024-03-22T00:27:06;5.31;85.03
71206;SHT31;58935;54.498;18.544;2024-03-22T00:29:36;5.30;85.01
71206;SHT31;58935;54.498;18.544;2024-03-22T00:32:02;5.32;85.08
71206;SHT31;58935;54.498;18.544;2024-03-22T00:34:28;5.32;85.00
71206;SHT31;58935;54.498;18.544;2024-03-22T00:36:53;5.32;84.89
71206;SHT31;58935;54.498;18.544;2024-03-22T00:39:18;5.31;84.81
71206;SHT31;58935;54.498;18.544;2024-03-22T00:41:43;5.29;84.81
71206;SHT31;58935;54.498;18.544;2024-03-22T00:44:09;5.28;84.81
71206;SHT31;58935;54.498;18.544;2024-03-22T00:46:36;5.28;84.80
71206;SHT31;58935;54.498;18.544;2024-03-22T00:49:02;5.27;84.80
71206;SHT31;58935;54.498;18.544;2024-03-22T00:51:27;5.26;84.81
71206;SHT31;58935;54.498;18.544;2024-03-22T00:53:55;5.26;84.83
71206;SHT31;58935;54.498;18.544;2024-03-22T00:56:23;5.24;84.77
71206;SHT31;58935;54.498;18.544;2024-03-22T00:58:48;5.24;84.81
71206;SHT31;58935;54.498;18.544;2024-03-22T01:01:13;5.23;84.81
71206;SHT31;58935;54.498;18.544;2024-03-22T01:03:39;5.23;84.84
71206;SHT31;58935;54.498;18.544;2024-03-22T01:06:06;5.23;84.84
71206;SHT31;58935;54.498;18.544;2024-03-22T01:08:34;5.25;84.87
71206;SHT31;58935;54.498;18.544;2024-03-22T01:10:59;5.25;84.90
71206;SHT31;58935;54.498;18.544;2024-03-22T01:13:24;5.25;84.82
71206;SHT31;58935;54.498;18.544;2024-03-22T01:15:50;5.23;84.74
71206;SHT31;58935;54.498;18.544;2024-03-22T01:18:17;5.21;84.77
71206;SHT31;58935;54.498;18.544;2024-03-22T01:20:43;5.20;84.90
71206;SHT31;58935;54.498;18.544;2024-03-22T01:23:08;5.18;84.90
71206;SHT31;58935;54.498;18.544;2024-03-22T01:25:38;5.16;84.90
71206;SHT31;58935;54.498;18.544;2024-03-22T01:28:04;5.16;84.96
71206;SHT31;58935;54.498;18.544;2024-03-22T01:30:30;5.16;85.04
71206;SHT31;58935;54.498;18.544;2024-03-22T01:32:55;5.15;85.05
71206;SHT31;58935;54.498;18.544;2024-03-22T01:35:21;5.14;85.10
71206;SHT31;58935;54.498;18.544;2024-03-22T01:37:47;5.13;85.21
71206;SHT31;58935;54.498;18.544;2024-03-22T01:40:12;5.14;85.32
71206;SHT31;58935;54.498;18.544;2024-03-22T01:42:38;5.12;85.32
71206;SHT31;58935;54.498;18.544;2024-03-22T01:45:04;5.10;85.40
71206;SHT31;58935;54.498;18.544;2024-03-22T01:47:33;5.10;85.41
71206;SHT31;58935;54.498;18.544;2024-03-22T01:49:59;5.08;85.44
71206;SHT31;58935;54.498;18.544;2024-03-22T01:52:26;5.06;85.50
71206;SHT31;58935;54.498;18.544;2024-03-22T01:54:52;5.07;85.53
71206;SHT31;58935;54.498;18.544;2024-03-22T01:57:17;5.08;85.61
71206;SHT31;58935;54.498;18.544;2024-03-22T01:59:42;5.09;85.75
71206;SHT31;58935;54.498;18.544;2024-03-22T02:02:08;5.10;85.80
71206;SHT31;58935;54.498;18.544;2024-03-22T02:04:36;5.10;85.78
71206;SHT31;58935;54.498;18.544;2024-03-22T02:07:01;5.09;85.87
71206;SHT31;58935;54.498;18.544;2024-03-22T02:09:29;5.09;85.92
71206;SHT31;58935;54.498;18.544;2024-03-22T02:11:54;5.10;85.96
71206;SHT31;58935;54.498;18.544;2024-03-22T02:14:20;5.11;86.00
71206;SHT31;58935;54.498;18.544;2024-03-22T02:16:45;5.12;86.01
71206;SHT31;58935;54.498;18.544;2024-03-22T02:19:11;5.14;86.03
71206;SHT31;58935;54.498;18.544;2024-03-22T02:21:36;5.14;85.99
71206;SHT31;58935;54.498;18.544;2024-03-22T02:24:01;5.14;85.96
71206;SHT31;58935;54.498;18.544;2024-03-22T02:26:27;5.13;86.00
71206;SHT31;58935;54.498;18.544;2024-03-22T02:28:52;5.16;86.00
71206;SHT31;58935;54.498;18.544;2024-03-22T02:31:17;5.16;86.00
71206;SHT31;58935;54.498;18.544;2024-03-22T02:33:45;5.18;85.93
71206;SHT31;58935;54.498;18.544;2024-03-22T02:36:11;5.19;85.91
71206;SHT31;58935;54.498;18.544;2024-03-22T02:38:38;5.20;85.90
71206;SHT31;58935;54.498;18.544;2024-03-22T02:41:04;5.22;85.90
71206;SHT31;58935;54.498;18.544;2024-03-22T02:43:29;5.24;85.84
71206;SHT31;58935;54.498;18.544;2024-03-22T02:45:54;5.25;85.77
71206;SHT31;58935;54.498;18.544;2024-03-22T02:48:20;5.26;85.73
71206;SHT31;58935;54.498;18.544;2024-03-22T02:50:45;5.26;85.69
71206;SHT31;58935;54.498;18.544;2024-03-22T02:53:11;5.26;85.69
71206;SHT31;58935;54.498;18.544;2024-03-22T02:55:39;5.25;85.68
71206;SHT31;58935;54.498;18.544;2024-03-22T02:58:09;5.26;85.70
71206;SHT31;58935;54.498;18.544;2024-03-22T03:00:37;5.27;85.69
71206;SHT31;58935;54.498;18.544;2024-03-22T03:03:05;5.27;85.62
71206;SHT31;58935;54.498;18.544;2024-03-22T03:05:31;5.28;85.67
71206;SHT31;58935;54.498;18.544;2024-03-22T03:07:57;5.28;85.60
71206;SHT31;58935;54.498;18.544;2024-03-22T03:10:22;5.29;85.60
71206;SHT31;58935;54.498;18.544;2024-03-22T03:12:50;5.29;85.56
71206;SHT31;58935;54.498;18.544;2024-03-22T03:15:15;5.30;85.56
71206;SHT31;58935;54.498;18.544;2024-03-22T03:17:43;5.28;85.52
71206;SHT31;58935;54.498;18.544;2024-03-22T03:20:08;5.27;85.55
71206;SHT31;58935;54.498;18.544;2024-03-22T03:22:38;5.27;85.60
71206;SHT31;58935;54.498;18.544;2024-03-22T03:25:04;5.25;85.61
71206;SHT31;58935;54.498;18.544;2024-03-22T03:27:30;5.25;85.61
71206;SHT31;58935;54.498;18.544;2024-03-22T03:29:58;5.25;85.69
71206;SHT31;58935;54.498;18.544;2024-03-22T03:32:23;5.23;85.70
71206;SHT31;58935;54.498;18.544;2024-03-22T03:34:50;5.24;85.74
71206;SHT31;58935;54.498;18.544;2024-03-22T03:37:16;5.25;85.74
71206;SHT31;58935;54.498;18.544;2024-03-22T03:39:41;5.25;85.76
71206;SHT31;58935;54.498;18.544;2024-03-22T03:42:07;5.26;85.80
71206;SHT31;58935;54.498;18.544;2024-03-22T03:44:32;5.26;85.73
71206;SHT31;58935;54.498;18.544;2024-03-22T03:46:59;5.26;85.74
71206;SHT31;58935;54.498;18.544;2024-03-22T03:49:26;5.27;85.73
71206;SHT31;58935;54.498;18.544;2024-03-22T03:51:51;5.28;85.77
71206;SHT31;58935;54.498;18.544;2024-03-22T03:54:17;5.30;85.73
71206;SHT31;58935;54.498;18.544;2024-03-22T03:56:42;5.30;85.70
71206;SHT31;58935;54.498;18.544;2024-03-22T03:59:10;5.31;85.71
71206;SHT31;58935;54.498;18.544;2024-03-22T04:01:37;5.32;85.64
71206;SHT31;58935;54.498;18.544;2024-03-22T04:04:03;5.33;85.64
71206;SHT31;58935;54.498;18.544;2024-03-22T04:06:29;5.35;85.64
71206;SHT31;58935;54.498;18.544;2024-03-22T04:08:54;5.37;85.63
71206;SHT31;58935;54.498;18.544;2024-03-22T04:11:20;5.39;85.60
71206;SHT31;58935;54.498;18.544;2024-03-22T04:13:45;5.42;85.60
71206;SHT31;58935;54.498;18.544;2024-03-22T04:16:13;5.44;85.55
71206;SHT31;58935;54.498;18.544;2024-03-22T04:18:39;5.46;85.50
71206;SHT31;58935;54.498;18.544;2024-03-22T04:21:04;5.47;85.43
71206;SHT31;58935;54.498;18.544;2024-03-22T04:23:30;5.48;85.38
71206;SHT31;58935;54.498;18.544;2024-03-22T04:25:55;5.47;85.32
71206;SHT31;58935;54.498;18.544;2024-03-22T04:28:24;5.48;85.29
71206;SHT31;58935;54.498;18.544;2024-03-22T04:30:54;5.47;85.27
71206;SHT31;58935;54.498;18.544;2024-03-22T04:33:24;5.47;85.30
71206;SHT31;58935;54.498;18.544;2024-03-22T04:35:50;5.49;85.30
71206;SHT31;58935;54.498;18.544;2024-03-22T04:38:15;5.52;85.28
71206;SHT31;58935;54.498;18.544;2024-03-22T04:40:41;5.51;85.26
71206;SHT31;58935;54.498;18.544;2024-03-22T04:43:06;5.55;85.30
71206;SHT31;58935;54.498;18.544;2024-03-22T04:45:32;5.56;85.21
71206;SHT31;58935;54.498;18.544;2024-03-22T04:47:58;5.58;85.16
71206;SHT31;58935;54.498;18.544;2024-03-22T04:50:23;5.60;85.17
71206;SHT31;58935;54.498;18.544;2024-03-22T04:52:48;5.61;85.12
71206;SHT31;58935;54.498;18.544;2024-03-22T04:55:14;5.64;85.10
71206;SHT31;58935;54.498;18.544;2024-03-22T04:57:39;5.66;85.10
71206;SHT31;58935;54.498;18.544;2024-03-22T05:00:07;5.68;85.09
71206;SHT31;58935;54.498;18.544;2024-03-22T05:02:34;5.71;85.01
71206;SHT31;58935;54.498;18.544;2024-03-22T05:04:59;5.70;84.89
71206;SHT31;58935;54.498;18.544;2024-03-22T05:07:25;5.70;84.83
71206;SHT31;58935;54.498;18.544;2024-03-22T05:09:51;5.70;84.81
71206;SHT31;58935;54.498;18.544;2024-03-22T05:12:16;5.68;84.80
71206;SHT31;58935;54.498;18.544;2024-03-22T05:14:41;5.69;84.80
71206;SHT31;58935;54.498;18.544;2024-03-22T05:17:07;5.70;84.81
71206;SHT31;58935;54.498;18.544;2024-03-22T05:19:32;5.73;84.91
71206;SHT31;58935;54.498;18.544;2024-03-22T05:22:00;5.76;84.92
71206;SHT31;58935;54.498;18.544;2024-03-22T05:24:26;5.80;84.88
71206;SHT31;58935;54.498;18.544;2024-03-22T05:26:52;5.82;84.72
71206;SHT31;58935;54.498;18.544;2024-03-22T05:29:18;5.83;84.67
71206;SHT31;58935;54.498;18.544;2024-03-22T05:31:46;5.86;84.75
71206;SHT31;58935;54.498;18.544;2024-03-22T05:34:15;5.88;84.65
71206;SHT31;58935;54.498;18.544;2024-03-22T05:36:41;5.90;84.67
71206;SHT31;58935;54.498;18.544;2024-03-22T05:39:06;5.96;84.96
71206;SHT31;58935;54.498;18.544;2024-03-22T05:41:32;6.05;85.14
71206;SHT31;58935;54.498;18.544;2024-03-22T05:43:57;6.16;84.99
71206;SHT31;58935;54.498;18.544;2024-03-22T05:46:22;6.23;84.70
71206;SHT31;58935;54.498;18.544;2024-03-22T05:48:50;6.29;84.56
71206;SHT31;58935;54.498;18.544;2024-03-22T05:51:17;6.35;84.24
71206;SHT31;58935;54.498;18.544;2024-03-22T05:53:42;6.40;84.08
71206;SHT31;58935;54.498;18.544;2024-03-22T05:56:08;6.42;83.91
71206;SHT31;58935;54.498;18.544;2024-03-22T05:58:34;6.43;83.77
71206;SHT31;58935;54.498;18.544;2024-03-22T06:01:01;6.45;83.80
71206;SHT31;58935;54.498;18.544;2024-03-22T06:03:29;6.46;83.77
71206;SHT31;58935;54.498;18.544;2024-03-22T06:05:55;6.45;83.67
71206;SHT31;58935;54.498;18.544;2024-03-22T06:08:24;6.42;83.64
71206;SHT31;58935;54.498;18.544;2024-03-22T06:10:54;6.39;83.64
71206;SHT31;58935;54.498;18.544;2024-03-22T06:13:23;6.39;83.79
71206;SHT31;58935;54.498;18.544;2024-03-22T06:15:49;6.39;83.90
71206;SHT31;58935;54.498;18.544;2024-03-22T06:18:15;6.40;84.04
71206;SHT31;58935;54.498;18.544;2024-03-22T06:20:41;6.43;84.20
71206;SHT31;58935;54.498;18.544;2024-03-22T06:23:08;6.47;84.22
71206;SHT31;58935;54.498;18.544;2024-03-22T06:25:34;6.48;84.18
71206;SHT31;58935;54.498;18.544;2024-03-22T06:28:04;6.47;84.11
71206;SHT31;58935;54.498;18.544;2024-03-22T06:30:30;6.47;84.14
71206;SHT31;58935;54.498;18.544;2024-03-22T06:32:55;6.47;84.20
71206;SHT31;58935;54.498;18.544;2024-03-22T06:35:23;6.47;84.21
71206;SHT31;58935;54.498;18.544;2024-03-22T06:37:48;6.47;84.19
71206;SHT31;58935;54.498;18.544;2024-03-22T06:40:14;6.48;84.28
71206;SHT31;58935;54.498;18.544;2024-03-22T06:42:41;6.48;84.29
71206;SHT31;58935;54.498;18.544;2024-03-22T06:45:06;6.50;84.31
71206;SHT31;58935;54.498;18.544;2024-03-22T06:47:32;6.53;84.38
71206;SHT31;58935;54.498;18.544;2024-03-22T06:49:58;6.56;84.40
71206;SHT31;58935;54.498;18.544;2024-03-22T06:52:23;6.57;84.36
71206;SHT31;58935;54.498;18.544;2024-03-22T06:54:49;6.58;84.30
71206;SHT31;58935;54.498;18.544;2024-03-22T06:57:18;6.57;84.21
71206;SHT31;58935;54.498;18.544;2024-03-22T06:59:43;6.57;84.26
71206;SHT31;58935;54.498;18.544;2024-03-22T07:02:09;6.58;84.22
71206;SHT31;58935;54.498;18.544;2024-03-22T07:04:34;6.58;84.30
71206;SHT31;58935;54.498;18.544;2024-03-22T07:07:02;6.59;84.29
71206;SHT31;58935;54.498;18.544;2024-03-22T07:09:32;6.64;84.34
71206;SHT31;58935;54.498;18.544;2024-03-22T07:11:58;6.69;84.34
71206;SHT31;58935;54.498;18.544;2024-03-22T07:14:23;6.75;84.36
71206;SHT31;58935;54.498;18.544;2024-03-22T07:16:50;6.79;84.15
71206;SHT31;58935;54.498;18.544;2024-03-22T07:19:21;6.80;84.10
71206;SHT31;58935;54.498;18.544;2024-03-22T07:21:48;6.84;84.08
71206;SHT31;58935;54.498;18.544;2024-03-22T07:24:14;6.84;83.98
71206;SHT31;58935;54.498;18.544;2024-03-22T07:26:42;6.88;84.00
71206;SHT31;58935;54.498;18.544;2024-03-22T07:29:09;6.91;84.04
71206;SHT31;58935;54.498;18.544;2024-03-22T07:31:35;6.93;83.92
71206;SHT31;58935;54.498;18.544;2024-03-22T07:34:00;6.95;83.83
71206;SHT31;58935;54.498;18.544;2024-03-22T07:36:25;6.98;83.82
71206;SHT31;58935;54.498;18.544;2024-03-22T07:38:52;7.01;83.76
71206;SHT31;58935;54.498;18.544;2024-03-22T07:41:21;7.04;83.62
71206;SHT31;58935;54.498;18.544;2024-03-22T07:43:48;7.05;83.56
71206;SHT31;58935;54.498;18.544;2024-03-22T07:46:14;7.07;83.50
71206;SHT31;58935;54.498;18.544;2024-03-22T07:48:39;7.08;83.50
71206;SHT31;58935;54.498;18.544;2024-03-22T07:51:04;7.09;83.44
71206;SHT31;58935;54.498;18.544;2024-03-22T07:53:32;7.12;83.33
71206;SHT31;58935;54.498;18.544;2024-03-22T07:55:58;7.13;83.34
71206;SHT31;58935;54.498;18.544;2024-03-22T07:58:25;7.15;83.34
71206;SHT31;58935;54.498;18.544;2024-03-22T08:00:52;7.20;83.30
71206;SHT31;58935;54.498;18.544;2024-03-22T08:03:31;7.26;83.23
71206;SHT31;58935;54.498;18.544;2024-03-22T08:05:58;7.32;82.93
71206;SHT31;58935;54.498;18.544;2024-03-22T08:08:26;7.36;82.80
71206;SHT31;58935;54.498;18.544;2024-03-22T08:10:54;7.42;82.82
71206;SHT31;58935;54.498;18.544;2024-03-22T08:13:22;7.49;82.78
71206;SHT31;58935;54.498;18.544;2024-03-22T08:15:48;7.57;82.66
71206;SHT31;58935;54.498;18.544;2024-03-22T08:18:13;7.65;82.51
71206;SHT31;58935;54.498;18.544;2024-03-22T08:20:38;7.73;82.38
71206;SHT31;58935;54.498;18.544;2024-03-22T08:23:04;7.79;82.08
71206;SHT31;58935;54.498;18.544;2024-03-22T08:25:30;7.84;81.98
71206;SHT31;58935;54.498;18.544;2024-03-22T08:27:56;7.91;81.87
71206;SHT31;58935;54.498;18.544;2024-03-22T08:30:25;7.95;81.60
71206;SHT31;58935;54.498;18.544;2024-03-22T08:32:55;7.98;81.59
71206;SHT31;58935;54.498;18.544;2024-03-22T08:35:25;8.03;81.46
71206;SHT31;58935;54.498;18.544;2024-03-22T08:37:51;8.07;81.34
71206;SHT31;58935;54.498;18.544;2024-03-22T08:40:16;8.11;81.26
71206;SHT31;58935;54.498;18.544;2024-03-22T08:42:42;8.19;81.24
71206;SHT31;58935;54.498;18.544;2024-03-22T08:45:07;8.27;81.19
71206;SHT31;58935;54.498;18.544;2024-03-22T08:47:33;8.31;80.89
71206;SHT31;58935;54.498;18.544;2024-03-22T08:49:59;8.37;80.87
71206;SHT31;58935;54.498;18.544;2024-03-22T08:52:25;8.44;80.77
71206;SHT31;58935;54.498;18.544;2024-03-22T08:54:52;8.52;80.70
71206;SHT31;58935;54.498;18.544;2024-03-22T08:59:51;8.68;80.56
71206;SHT31;58935;54.498;18.544;2024-03-22T09:02:17;8.75;80.27
71206;SHT31;58935;54.498;18.544;2024-03-22T09:07:20;8.80;79.75
71206;SHT31;58935;54.498;18.544;2024-03-22T09:12:19;8.89;79.58
71206;SHT31;58935;54.498;18.544;2024-03-22T09:14:44;8.98;79.57
71206;SHT31;58935;54.498;18.544;2024-03-22T09:17:10;9.05;79.60
71206;SHT31;58935;54.498;18.544;2024-03-22T09:19:35;9.11;79.39
71206;SHT31;58935;54.498;18.544;2024-03-22T09:22:03;9.13;79.36
71206;SHT31;58935;54.498;18.544;2024-03-22T09:24:30;9.18;79.49
71206;SHT31;58935;54.498;18.544;2024-03-22T09:26:56;9.21;79.20
71206;SHT31;58935;54.498;18.544;2024-03-22T09:29:21;9.26;79.04
71206;SHT31;58935;54.498;18.544;2024-03-22T09:31:47;9.27;78.78
71206;SHT31;58935;54.498;18.544;2024-03-22T09:34:12;9.26;78.63
71206;SHT31;58935;54.498;18.544;2024-03-22T09:36:37;9.25;78.47
71206;SHT31;58935;54.498;18.544;2024-03-22T09:39:03;9.26;78.52
71206;SHT31;58935;54.498;18.544;2024-03-22T09:41:31;9.28;78.71
71206;SHT31;58935;54.498;18.544;2024-03-22T09:44:00;9.30;78.69
71206;SHT31;58935;54.498;18.544;2024-03-22T09:46:30;9.30;78.40
71206;SHT31;58935;54.498;18.544;2024-03-22T09:48:56;9.28;78.51
71206;SHT31;58935;54.498;18.544;2024-03-22T09:51:23;9.27;78.51
71206;SHT31;58935;54.498;18.544;2024-03-22T09:53:49;9.26;78.41
71206;SHT31;58935;54.498;18.544;2024-03-22T09:56:20;9.24;78.60
71206;SHT31;58935;54.498;18.544;2024-03-22T09:58:46;9.23;78.77
71206;SHT31;58935;54.498;18.544;2024-03-22T10:01:12;9.24;78.72
71206;SHT31;58935;54.498;18.544;2024-03-22T10:03:39;9.27;78.91
71206;SHT31;58935;54.498;18.544;2024-03-22T10:06:04;9.32;79.24
71206;SHT31;58935;54.498;18.544;2024-03-22T10:08:30;9.34;79.32
71206;SHT31;58935;54.498;18.544;2024-03-22T10:10:56;9.35;79.36
71206;SHT31;58935;54.498;18.544;2024-03-22T10:13:21;9.34;79.20
71206;SHT31;58935;54.498;18.544;2024-03-22T10:15:46;9.32;79.10
71206;SHT31;58935;54.498;18.544;2024-03-22T10:18:12;9.34;79.41
71206;SHT31;58935;54.498;18.544;2024-03-22T10:20:39;9.35;79.47
71206;SHT31;58935;54.498;18.544;2024-03-22T10:23:05;9.38;79.50
71206;SHT31;58935;54.498;18.544;2024-03-22T10:25:35;9.40;79.41
71206;SHT31;58935;54.498;18.544;2024-03-22T10:28:01;9.39;79.48
71206;SHT31;58935;54.498;18.544;2024-03-22T10:30:26;9.40;79.44
71206;SHT31;58935;54.498;18.544;2024-03-22T10:32:53;9.37;79.30
71206;SHT31;58935;54.498;18.544;2024-03-22T10:35:18;9.36;79.37
71206;SHT31;58935;54.498;18.544;2024-03-22T10:37:46;9.33;79.41
71206;SHT31;58935;54.498;18.544;2024-03-22T10:40:15;9.30;79.55
71206;SHT31;58935;54.498;18.544;2024-03-22T10:42:42;9.29;79.70
71206;SHT31;58935;54.498;18.544;2024-03-22T10:45:09;9.29;79.77
71206;SHT31;58935;54.498;18.544;2024-03-22T10:47:39;9.32;79.94
71206;SHT31;58935;54.498;18.544;2024-03-22T10:50:06;9.35;79.95
71206;SHT31;58935;54.498;18.544;2024-03-22T10:55:16;9.42;79.93
71206;SHT31;58935;54.498;18.544;2024-03-22T10:57:56;9.44;79.82
71206;SHT31;58935;54.498;18.544;2024-03-22T11:02:54;9.44;79.85
71206;SHT31;58935;54.498;18.544;2024-03-22T11:05:21;9.47;80.03
71206;SHT31;58935;54.498;18.544;2024-03-22T11:07:47;9.47;80.04
71206;SHT31;58935;54.498;18.544;2024-03-22T11:10:25;9.47;80.01
71206;SHT31;58935;54.498;18.544;2024-03-22T11:12:55;9.45;79.99
71206;SHT31;58935;54.498;18.544;2024-03-22T11:15:20;9.45;80.06
71206;SHT31;58935;54.498;18.544;2024-03-22T11:17:47;9.46;80.04
71206;SHT31;58935;54.498;18.544;2024-03-22T11:20:14;9.46;80.10
71206;SHT31;58935;54.498;18.544;2024-03-22T11:22:40;9.48;80.21
71206;SHT31;58935;54.498;18.544;2024-03-22T11:25:06;9.49;80.18
71206;SHT31;58935;54.498;18.544;2024-03-22T11:27:34;9.49;80.09
71206;SHT31;58935;54.498;18.544;2024-03-22T11:29:59;9.49;80.18
71206;SHT31;58935;54.498;18.544;2024-03-22T11:32:24;9.50;80.17
71206;SHT31;58935;54.498;18.544;2024-03-22T11:34:50;9.49;80.21
71206;SHT31;58935;54.498;18.544;2024-03-22T11:37:16;9.49;80.19
71206;SHT31;58935;54.498;18.544;2024-03-22T11:39:44;9.48;80.13
71206;SHT31;58935;54.498;18.544;2024-03-22T11:42:09;9.47;80.11
71206;SHT31;58935;54.498;18.544;2024-03-22T11:44:36;9.49;80.31
71206;SHT31;58935;54.498;18.544;2024-03-22T11:47:04;9.52;80.38
71206;SHT31;58935;54.498;18.544;2024-03-22T11:49:30;9.53;80.41
71206;SHT31;58935;54.498;18.544;2024-03-22T11:51:56;9.55;80.54
71206;SHT31;58935;54.498;18.544;2024-03-22T11:54:22;9.59;80.54
71206;SHT31;58935;54.498;18.544;2024-03-22T11:56:49;9.62;80.42
71206;SHT31;58935;54.498;18.544;2024-03-22T11:59:20;9.60;80.29
71206;SHT31;58935;54.498;18.544;2024-03-22T12:01:46;9.61;80.41
71206;SHT31;58935;54.498;18.544;2024-03-22T12:04:12;9.64;80.50
71206;SHT31;58935;54.498;18.544;2024-03-22T12:06:42;9.67;80.52
71206;SHT31;58935;54.498;18.544;2024-03-22T12:09:09;9.68;80.51
71206;SHT31;58935;54.498;18.544;2024-03-22T12:11:37;9.69;80.54
71206;SHT31;58935;54.498;18.544;2024-03-22T12:14:03;9.71;80.54
71206;SHT31;58935;54.498;18.544;2024-03-22T12:16:28;9.70;80.54
71206;SHT31;58935;54.498;18.544;2024-03-22T12:18:53;9.74;80.81
71206;SHT31;58935;54.498;18.544;2024-03-22T12:21:19;9.81;80.93
71206;SHT31;58935;54.498;18.544;2024-03-22T12:23:44;9.88;80.97
71206;SHT31;58935;54.498;18.544;2024-03-22T12:26:09;9.92;80.80
71206;SHT31;58935;54.498;18.544;2024-03-22T12:28:37;9.98;80.78
71206;SHT31;58935;54.498;18.544;2024-03-22T12:31:03;10.04;80.64
71206;SHT31;58935;54.498;18.544;2024-03-22T12:33:29;10.06;80.44
71206;SHT31;58935;54.498;18.544;2024-03-22T12:35:55;10.08;80.27
71206;SHT31;58935;54.498;18.544;2024-03-22T12:38:20;10.08;79.92
71206;SHT31;58935;54.498;18.544;2024-03-22T12:40:45;10.04;79.24
71206;SHT31;58935;54.498;18.544;2024-03-22T12:43:11;9.99;79.36
71206;SHT31;58935;54.498;18.544;2024-03-22T12:45:37;9.99;79.53
71206;SHT31;58935;54.498;18.544;2024-03-22T12:48:03;9.98;79.32
71206;SHT31;58935;54.498;18.544;2024-03-22T12:50:29;9.97;79.42
71206;SHT31;58935;54.498;18.544;2024-03-22T12:52:55;9.98;79.54
71206;SHT31;58935;54.498;18.544;2024-03-22T12:55:21;10.02;79.43
71206;SHT31;58935;54.498;18.544;2024-03-22T12:57:47;10.07;79.50
71206;SHT31;58935;54.498;18.544;2024-03-22T13:00:12;10.11;79.39
71206;SHT31;58935;54.498;18.544;2024-03-22T13:02:40;10.14;79.05
71206;SHT31;58935;54.498;18.544;2024-03-22T13:05:05;10.17;78.86
71206;SHT31;58935;54.498;18.544;2024-03-22T13:07:32;10.19;78.82
71206;SHT31;58935;54.498;18.544;2024-03-22T13:09:57;10.20;78.75
71206;SHT31;58935;54.498;18.544;2024-03-22T13:12:25;10.20;78.75
71206;SHT31;58935;54.498;18.544;2024-03-22T13:14:54;10.20;78.46
71206;SHT31;58935;54.498;18.544;2024-03-22T13:17:20;10.18;78.36
71206;SHT31;58935;54.498;18.544;2024-03-22T13:19:45;10.17;78.32
71206;SHT31;58935;54.498;18.544;2024-03-22T13:22:11;10.18;78.41
71206;SHT31;58935;54.498;18.544;2024-03-22T13:24:37;10.22;78.52
71206;SHT31;58935;54.498;18.544;2024-03-22T13:27:03;10.30;78.63
71206;SHT31;58935;54.498;18.544;2024-03-22T13:29:29;10.37;78.58
71206;SHT31;58935;54.498;18.544;2024-03-22T13:31:54;10.44;78.53
71206;SHT31;58935;54.498;18.544;2024-03-22T13:34:22;10.48;78.27
71206;SHT31;58935;54.498;18.544;2024-03-22T13:36:47;10.53;78.38
71206;SHT31;58935;54.498;18.544;2024-03-22T13:39:13;10.57;78.14
71206;SHT31;58935;54.498;18.544;2024-03-22T13:41:41;10.59;78.11
71206;SHT31;58935;54.498;18.544;2024-03-22T13:44:07;10.60;78.16
71206;SHT31;58935;54.498;18.544;2024-03-22T13:46:33;10.60;78.02
71206;SHT31;58935;54.498;18.544;2024-03-22T13:49:01;10.57;78.12
71206;SHT31;58935;54.498;18.544;2024-03-22T13:51:29;10.56;78.24
71206;SHT31;58935;54.498;18.544;2024-03-22T13:53:56;10.57;78.36
71206;SHT31;58935;54.498;18.544;2024-03-22T13:56:22;10.58;78.31
71206;SHT31;58935;54.498;18.544;2024-03-22T13:58:47;10.57;78.46
71206;SHT31;58935;54.498;18.544;2024-03-22T14:01:14;10.54;78.33
71206;SHT31;58935;54.498;18.544;2024-03-22T14:03:40;10.52;78.40
71206;SHT31;58935;54.498;18.544;2024-03-22T14:06:05;10.51;78.39
71206;SHT31;58935;54.498;18.544;2024-03-22T14:08:31;10.51;78.47
71206;SHT31;58935;54.498;18.544;2024-03-22T14:10:59;10.52;78.49
71206;SHT31;58935;54.498;18.544;2024-03-22T14:13:25;10.52;78.19
71206;SHT31;58935;54.498;18.544;2024-03-22T14:15:50;10.52;78.19
71206;SHT31;58935;54.498;18.544;2024-03-22T14:18:15;10.57;78.27
71206;SHT31;58935;54.498;18.544;2024-03-22T14:20:41;10.62;78.28
71206;SHT31;58935;54.498;18.544;2024-03-22T14:23:06;10.64;77.88
71206;SHT31;58935;54.498;18.544;2024-03-22T14:25:32;10.65;77.79
71206;SHT31;58935;54.498;18.544;2024-03-22T14:27:57;10.65;77.75
71206;SHT31;58935;54.498;18.544;2024-03-22T14:30:22;10.62;77.53
71206;SHT31;58935;54.498;18.544;2024-03-22T14:32:50;10.61;77.53
71206;SHT31;58935;54.498;18.544;2024-03-22T14:35:17;10.64;77.70
71206;SHT31;58935;54.498;18.544;2024-03-22T14:37:43;10.64;77.67
71206;SHT31;58935;54.498;18.544;2024-03-22T14:40:09;10.64;77.58
71206;SHT31;58935;54.498;18.544;2024-03-22T14:42:36;10.67;77.76
71206;SHT31;58935;54.498;18.544;2024-03-22T14:45:03;10.70;77.65
71206;SHT31;58935;54.498;18.544;2024-03-22T14:47:31;10.69;77.58
71206;SHT31;58935;54.498;18.544;2024-03-22T14:50:00;10.65;77.57
71206;SHT31;58935;54.498;18.544;2024-03-22T14:52:29;10.62;77.71
71206;SHT31;58935;54.498;18.544;2024-03-22T14:54:55;10.61;77.72
71206;SHT31;58935;54.498;18.544;2024-03-22T14:57:20;10.59;77.88
71206;SHT31;58935;54.498;18.544;2024-03-22T14:59:46;10.60;77.89
71206;SHT31;58935;54.498;18.544;2024-03-22T15:02:13;10.58;77.95
71206;SHT31;58935;54.498;18.544;2024-03-22T15:04:39;10.57;77.98
71206;SHT31;58935;54.498;18.544;2024-03-22T15:07:09;10.55;78.19
71206;SHT31;58935;54.498;18.544;2024-03-22T15:09:34;10.52;78.21
71206;SHT31;58935;54.498;18.544;2024-03-22T15:12:00;10.50;78.30
71206;SHT31;58935;54.498;18.544;2024-03-22T15:14:25;10.47;78.38
71206;SHT31;58935;54.498;18.544;2024-03-22T15:16:54;10.45;78.56
71206;SHT31;58935;54.498;18.544;2024-03-22T15:19:20;10.43;78.65
71206;SHT31;58935;54.498;18.544;2024-03-22T15:21:47;10.42;78.81
71206;SHT31;58935;54.498;18.544;2024-03-22T15:24:13;10.40;78.96
71206;SHT31;58935;54.498;18.544;2024-03-22T15:26:38;10.39;79.30
71206;SHT31;58935;54.498;18.544;2024-03-22T15:29:04;10.40;79.69
71206;SHT31;58935;54.498;18.544;2024-03-22T15:31:30;10.39;80.00
71206;SHT31;58935;54.498;18.544;2024-03-22T15:33:56;10.35;80.22